Time;durP1;ratioP1;P1;durP2;ratioP2;P2;SDS_P1;SDS_P2;PMS_P1;PMS_P2;Temp;Humidity;BMP_temperature;BMP_pressure;BME280_temperature;BME280_humidity;BME280_pressure;Samples;Min_cycle;Max_cycle;Signal;HPM_P1;HPM_P2
2023/12/10 00:02:18;;;;;;;27.30;6.13;;;;;;;13.08;77.31;99098.34;8298504;28;20041;-60
2023/12/10 00:06:18;;;;;;;37.08;5.03;;;;;;;13.08;76.83;99087.50;8313229;28;20052;-60
2023/12/10 00:10:19;;;;;;;31.48;4.85;;;;;;;13.14;76.99;99097.59;8353753;28;20032;-60
2023/12/10 00:14:19;;;;;;;34.28;4.90;;;;;;;13.19;76.95;99084.28;8354193;28;20040;-60
2023/12/10 00:18:20;;;;;;;26.08;4.78;;;;;;;13.18;77.39;99104.34;8353787;28;20407;-60
2023/12/10 00:22:22;;;;;;;30.90;4.65;;;;;;;13.10;76.87;99102.56;8354757;28;20040;-60
2023/12/10 00:26:22;;;;;;;40.22;4.85;;;;;;;13.22;76.42;99111.91;8358485;28;20173;-59
2023/12/10 00:30:23;;;;;;;34.53;5.20;;;;;;;13.26;76.01;99106.91;8360055;28;20099;-60
2023/12/10 00:34:23;;;;;;;34.63;4.72;;;;;;;13.20;75.60;99119.38;8360005;28;20049;-59
2023/12/10 00:38:24;;;;;;;36.55;5.70;;;;;;;13.22;75.16;99127.34;8357491;28;20049;-60
2023/12/10 00:42:24;;;;;;;26.30;4.18;;;;;;;13.21;75.74;99123.78;8358500;28;20458;-60
2023/12/10 00:46:25;;;;;;;50.78;6.10;;;;;;;13.14;76.30;99130.16;8355343;28;20071;-60
2023/12/10 00:50:25;;;;;;;31.75;3.88;;;;;;;13.12;76.61;99134.94;8357363;28;20044;-57
2023/12/10 00:54:26;;;;;;;27.52;4.80;;;;;;;13.12;76.20;99127.63;8358726;28;20469;-59
2023/12/10 00:58:26;;;;;;;39.72;5.00;;;;;;;13.22;75.16;99149.03;8361008;28;20136;-57
2023/12/10 01:02:27;;;;;;;41.75;5.50;;;;;;;13.22;75.29;99132.75;8357449;28;20062;-57
2023/12/10 01:06:27;;;;;;;37.97;5.05;;;;;;;13.17;75.67;99144.19;8359280;28;20079;-57
2023/12/10 01:10:27;;;;;;;36.15;5.50;;;;;;;13.27;74.73;99130.31;8322274;28;20044;-60
2023/12/10 01:14:29;;;;;;;27.52;3.78;;;;;;;13.24;74.75;99141.56;8306538;28;20268;-61
2023/12/10 01:18:32;;;;;;;25.10;4.57;;;;;;;13.20;74.57;99146.53;8306195;28;20268;-61
2023/12/10 01:22:33;;;;;;;30.80;4.22;;;;;;;13.25;73.07;99159.53;8304645;28;20036;-60
2023/12/10 01:26:33;;;;;;;34.63;4.28;;;;;;;13.27;73.07;99157.47;8337806;28;20037;-59
2023/12/10 01:30:34;;;;;;;23.27;3.30;;;;;;;13.29;72.85;99166.25;8305722;28;20063;-61
2023/12/10 01:34:34;;;;;;;31.63;4.90;;;;;;;13.26;72.66;99169.34;8303981;28;20701;-61
2023/12/10 01:38:35;;;;;;;28.83;4.05;;;;;;;13.18;73.17;99170.28;8303622;28;20273;-60
2023/12/10 01:42:35;;;;;;;27.20;3.58;;;;;;;13.24;72.83;99174.94;8302902;28;20048;-60
2023/12/10 01:46:36;;;;;;;29.08;3.63;;;;;;;13.20;72.50;99180.94;8308014;28;20317;-60
2023/12/10 01:50:38;;;;;;;31.33;4.18;;;;;;;13.25;72.57;99181.22;8296796;28;20866;-61
2023/12/10 01:54:39;;;;;;;37.20;4.70;;;;;;;13.23;72.12;99199.56;8301838;28;20258;-61
2023/12/10 01:58:40;;;;;;;30.60;3.67;;;;;;;13.24;71.58;99193.13;8357720;28;20044;-57
2023/12/10 02:02:42;;;;;;;24.00;2.80;;;;;;;13.20;72.60;99205.38;8359010;28;20148;-57
2023/12/10 02:06:43;;;;;;;26.20;4.82;;;;;;;13.17;72.97;99224.75;8361125;28;20063;-57
2023/12/10 02:10:43;;;;;;;26.23;3.88;;;;;;;13.10;72.57;99231.97;8361148;28;20041;-57
2023/12/10 02:14:44;;;;;;;27.00;4.07;;;;;;;13.16;71.63;99231.22;8362544;28;20403;-57
2023/12/10 02:18:44;;;;;;;26.40;3.65;;;;;;;13.13;71.90;99242.44;8363048;28;20499;-58
2023/12/10 02:23:11;;;;;;;23.20;3.83;;;;;;;13.12;71.56;99252.44;8361755;28;20041;-57
2023/12/10 02:27:12;;;;;;;26.10;3.83;;;;;;;13.01;72.09;99252.06;8361759;28;20495;-58
2023/12/10 02:31:12;;;;;;;26.95;4.50;;;;;;;13.00;71.08;99245.84;8360574;28;20484;-57
2023/12/10 02:35:13;;;;;;;26.05;4.00;;;;;;;13.07;70.20;99248.63;8359822;28;20044;-61
2023/12/10 02:39:13;;;;;;;24.20;3.58;;;;;;;13.07;70.51;99254.03;8355339;28;20450;-57
2023/12/10 02:43:16;;;;;;;22.33;3.03;;;;;;;13.07;69.57;99259.47;8334850;28;20450;-61
2023/12/10 02:47:17;;;;;;;21.20;3.35;;;;;;;13.00;70.60;99250.41;8305638;28;20295;-60
2023/12/10 02:51:17;;;;;;;30.63;3.97;;;;;;;12.89;70.33;99257.09;8304625;28;20507;-61
2023/12/10 02:55:18;;;;;;;27.77;3.00;;;;;;;12.99;69.18;99252.25;8303054;28;20068;-60
2023/12/10 02:59:18;;;;;;;24.77;3.22;;;;;;;12.97;70.00;99269.72;8303943;28;20478;-60
2023/12/10 03:03:19;;;;;;;22.65;2.67;;;;;;;12.95;70.49;99266.34;8276015;28;20040;-61
2023/12/10 03:07:19;;;;;;;24.65;3.60;;;;;;;12.90;71.41;99288.59;8274818;28;20461;-61
2023/12/10 03:11:19;;;;;;;22.77;3.30;;;;;;;12.83;72.54;99281.41;8265932;28;20037;-60
2023/12/10 03:15:20;;;;;;;21.75;3.55;;;;;;;12.79;73.19;99288.22;8266427;28;20741;-60
2023/12/10 03:19:20;;;;;;;28.52;3.47;;;;;;;12.64;74.72;99292.78;8266956;28;20355;-61
2023/12/10 03:23:21;;;;;;;27.23;3.70;;;;;;;12.60;75.70;99302.31;8262639;28;20432;-60
2023/12/10 03:27:22;;;;;;;24.48;2.78;;;;;;;12.69;74.09;99314.78;8263680;28;20033;-60
2023/12/10 03:31:22;;;;;;;30.35;4.25;;;;;;;12.82;73.21;99299.56;8288782;28;20090;-60
2023/12/10 03:35:22;;;;;;;23.42;3.55;;;;;;;12.85;73.29;99330.88;8329826;28;20098;-58
2023/12/10 03:39:23;;;;;;;24.67;4.03;;;;;;;12.82;73.10;99329.41;8390918;28;20559;-59
2023/12/10 03:43:23;;;;;;;29.75;3.65;;;;;;;12.79;72.67;99334.34;8369151;28;20045;-57
2023/12/10 03:47:24;;;;;;;27.48;3.58;;;;;;;12.80;73.21;99338.72;8374906;28;20095;-60
2023/12/10 03:51:24;;;;;;;25.45;3.80;;;;;;;12.71;74.71;99345.25;8368967;28;20041;-58
2023/12/10 03:55:25;;;;;;;35.63;4.03;;;;;;;12.50;77.12;99351.34;8368198;28;20036;-57
2023/12/10 03:59:25;;;;;;;32.92;3.88;;;;;;;12.38;77.82;99349.25;8367831;28;20033;-57
2023/12/10 04:03:26;;;;;;;22.67;3.88;;;;;;;12.45;77.84;99344.78;8379916;28;20037;-57
2023/12/10 04:07:26;;;;;;;29.48;4.50;;;;;;;12.36;78.60;99356.72;8377421;28;20314;-57
2023/12/10 04:11:26;;;;;;;38.08;4.53;;;;;;;12.34;78.58;99350.63;8377348;28;20041;-62
2023/12/10 04:15:27;;;;;;;42.13;4.00;;;;;;;12.26;80.05;99372.38;8376250;28;20445;-62
2023/12/10 04:19:27;;;;;;;43.83;4.93;;;;;;;12.29;79.22;99361.19;8379047;28;20569;-62
2023/12/10 04:23:28;;;;;;;26.42;4.28;;;;;;;12.30;78.90;99357.44;8375713;28;20064;-62
2023/12/10 04:27:28;;;;;;;22.88;3.40;;;;;;;12.31;78.63;99369.94;8378917;28;20051;-62
2023/12/10 04:31:29;;;;;;;33.45;4.05;;;;;;;12.37;77.32;99361.09;8345286;28;20396;-60
2023/12/10 04:35:30;;;;;;;29.05;3.83;;;;;;;12.41;77.01;99351.59;8313612;28;20744;-60
2023/12/10 04:39:30;;;;;;;25.10;4.47;;;;;;;12.43;75.82;99330.56;8274926;28;20367;-60
2023/12/10 04:43:31;;;;;;;31.23;4.40;;;;;;;12.48;75.43;99341.72;8283484;28;20464;-60
2023/12/10 04:47:32;;;;;;;38.03;4.85;;;;;;;12.46;75.54;99346.47;8285068;28;20495;-60
2023/12/10 04:51:32;;;;;;;29.33;4.07;;;;;;;12.55;73.95;99343.53;8282111;28;20792;-60
2023/12/10 04:55:33;;;;;;;27.00;3.78;;;;;;;12.77;72.38;99349.94;8280614;28;20216;-60
2023/12/10 04:59:34;;;;;;;25.42;3.70;;;;;;;12.79;72.60;99364.16;8304119;28;20380;-60
2023/12/10 05:03:34;;;;;;;44.08;3.47;;;;;;;12.84;72.31;99378.84;8328902;28;20044;-65
2023/12/10 05:07:35;;;;;;;25.42;3.33;;;;;;;12.83;72.46;99370.91;8376079;28;20123;-65
2023/12/10 05:11:35;;;;;;;29.35;4.55;;;;;;;12.86;71.70;99375.97;8374961;28;20037;-64
2023/12/10 05:15:36;;;;;;;30.98;4.00;;;;;;;12.98;71.02;99385.34;8377901;28;20572;-62
2023/12/10 05:19:36;;;;;;;27.50;3.78;;;;;;;12.83;71.86;99392.59;8375289;28;20546;-62
2023/12/10 05:23:37;;;;;;;31.05;3.78;;;;;;;12.84;71.68;99405.16;8375029;28;20128;-57
2023/12/10 05:27:37;;;;;;;25.52;3.38;;;;;;;12.94;71.18;99428.28;8378758;28;20052;-57
2023/12/10 05:31:38;;;;;;;26.00;3.75;;;;;;;12.91;71.12;99435.94;8368557;28;20083;-57
2023/12/10 05:35:38;;;;;;;25.02;3.88;;;;;;;12.99;70.51;99435.88;8371857;28;20387;-56
2023/12/10 05:39:38;;;;;;;25.98;3.63;;;;;;;12.82;71.64;99446.03;8372452;28;20052;-57
2023/12/10 05:43:39;;;;;;;22.02;3.67;;;;;;;12.84;71.66;99440.41;8374659;28;20041;-56
2023/12/10 05:47:39;;;;;;;32.22;4.22;;;;;;;12.85;71.90;99461.06;8374053;28;20120;-56
2023/12/10 05:51:40;;;;;;;23.00;3.08;;;;;;;12.84;71.91;99443.13;8374014;28;20032;-57
2023/12/10 05:55:40;;;;;;;40.10;4.80;;;;;;;12.92;71.63;99445.75;8396675;28;20037;-56
2023/12/10 05:59:41;;;;;;;22.63;3.28;;;;;;;12.92;70.40;99437.63;8354813;28;20413;-60
2023/12/10 06:03:41;;;;;;;25.73;3.83;;;;;;;12.90;71.99;99478.50;8319095;28;20268;-59
2023/12/10 06:07:42;;;;;;;32.22;4.07;;;;;;;12.89;71.83;99490.38;8320777;28;20106;-60
2023/12/10 06:11:42;;;;;;;38.20;4.03;;;;;;;12.93;71.70;99486.28;8281853;28;20048;-60
2023/12/10 06:15:43;;;;;;;27.00;4.07;;;;;;;12.92;71.84;99489.16;8278444;28;20036;-60
2023/12/10 06:19:44;;;;;;;23.67;3.75;;;;;;;12.98;71.24;99488.44;8316086;28;20131;-60
2023/12/10 06:23:45;;;;;;;31.27;4.80;;;;;;;12.88;71.29;99472.44;8272729;28;20037;-60
2023/12/10 06:27:46;;;;;;;32.15;4.32;;;;;;;12.92;71.70;99505.44;8291218;28;20056;-60
2023/12/10 06:31:46;;;;;;;27.95;3.50;;;;;;;12.94;71.00;99503.41;8316257;28;20378;-60
2023/12/10 06:35:47;;;;;;;27.35;3.15;;;;;;;13.03;70.70;99507.78;8311638;28;20034;-60
2023/12/10 06:39:47;;;;;;;29.75;3.47;;;;;;;13.04;69.99;99493.19;8305923;28;20542;-60
2023/12/10 06:43:48;;;;;;;30.63;5.43;;;;;;;13.02;70.61;99512.34;8311498;28;20318;-60
2023/12/10 06:47:48;;;;;;;23.13;4.63;;;;;;;13.02;70.88;99522.38;8326574;28;20209;-59
2023/12/10 06:51:49;;;;;;;28.67;3.83;;;;;;;13.07;70.45;99525.38;8316689;28;20049;-59
2023/12/10 06:55:49;;;;;;;30.58;3.63;;;;;;;13.00;71.60;99540.69;8316811;28;20437;-59
2023/12/10 06:59:50;;;;;;;24.27;3.28;;;;;;;12.93;71.55;99537.00;8316325;28;20494;-59
2023/12/10 07:03:50;;;;;;;27.25;3.50;;;;;;;12.96;71.81;99551.03;8319654;28;21016;-59
2023/12/10 07:07:51;;;;;;;28.45;3.60;;;;;;;12.97;72.14;99557.31;8317604;28;20052;-58
2023/12/10 07:11:51;;;;;;;27.15;3.63;;;;;;;13.02;71.50;99571.22;8318699;28;20274;-58
2023/12/10 07:15:52;;;;;;;26.08;3.35;;;;;;;12.92;72.42;99571.41;8334463;28;20131;-59
2023/12/10 07:19:52;;;;;;;32.35;3.63;;;;;;;12.96;72.74;99597.13;8373968;28;20390;-59
2023/12/10 07:23:53;;;;;;;28.10;3.05;;;;;;;12.93;73.57;99600.22;8369498;28;20076;-59
2023/12/10 07:27:53;;;;;;;24.38;3.33;;;;;;;12.84;73.85;99625.69;8351928;28;20096;-58
2023/12/10 07:31:54;;;;;;;24.85;3.88;;;;;;;12.87;73.16;99627.22;8317341;28;20200;-59
2023/12/10 07:35:57;;;;;;;31.35;3.50;;;;;;;12.94;73.19;99634.47;8329389;28;20742;-59
2023/12/10 07:39:58;;;;;;;20.63;3.10;;;;;;;12.87;73.56;99640.78;8375822;28;20174;-62
2023/12/10 07:43:58;;;;;;;28.05;4.00;;;;;;;12.90;73.18;99648.56;8374690;28;20583;-58
2023/12/10 07:47:59;;;;;;;19.30;3.50;;;;;;;12.85;73.91;99675.38;8379523;28;20419;-59
2023/12/10 07:51:59;;;;;;;25.67;3.50;;;;;;;12.77;74.93;99686.22;8376038;28;20045;-57
2023/12/10 07:56:00;;;;;;;22.92;3.22;;;;;;;12.79;73.54;99689.63;8378971;28;20037;-58
2023/12/10 08:00:00;;;;;;;28.48;4.05;;;;;;;12.82;72.00;99690.13;8379930;28;20044;-58
2023/12/10 08:04:01;;;;;;;24.85;3.75;;;;;;;12.85;72.63;99686.22;8375060;28;20033;-62
2023/12/10 08:08:03;;;;;;;20.85;3.33;;;;;;;12.78;73.24;99709.66;8373351;28;20037;-60
2023/12/10 08:12:04;;;;;;;26.15;3.03;;;;;;;12.72;72.55;99711.16;8373427;28;20024;-59
2023/12/10 08:16:05;;;;;;;23.65;3.58;;;;;;;12.67;72.80;99723.56;8375596;28;20570;-61
2023/12/10 08:20:06;;;;;;;27.92;3.75;;;;;;;12.73;72.55;99722.88;8378683;28;20036;-62
2023/12/10 08:24:07;;;;;;;20.80;2.72;;;;;;;12.80;73.12;99729.28;8368071;28;20455;-62
2023/12/10 08:28:07;;;;;;;36.17;4.13;;;;;;;12.80;73.53;99737.41;8365022;28;20120;-62
2023/12/10 08:32:08;;;;;;;31.27;4.05;;;;;;;12.79;73.96;99735.75;8363070;28;20036;-62
2023/12/10 08:36:09;;;;;;;23.90;4.15;;;;;;;12.84;74.14;99746.94;8363432;28;20067;-62
2023/12/10 08:40:10;;;;;;;33.20;4.13;;;;;;;12.89;73.96;99744.50;8357284;28;20044;-62
2023/12/10 08:44:10;;;;;;;28.73;4.22;;;;;;;12.99;74.18;99747.91;8361525;28;20491;-62
2023/12/10 08:48:11;;;;;;;32.63;4.30;;;;;;;13.02;74.53;99750.28;8366182;28;20040;-62
2023/12/10 08:52:11;;;;;;;28.52;3.30;;;;;;;13.22;73.78;99757.84;8364076;28;20476;-58
2023/12/10 08:56:12;;;;;;;23.85;3.25;;;;;;;13.46;72.09;99748.75;8362117;28;20064;-58
2023/12/10 09:00:13;;;;;;;29.60;4.55;;;;;;;13.51;71.33;99763.47;8371037;28;20044;-58
2023/12/10 09:04:14;;;;;;;27.77;3.33;;;;;;;13.57;71.87;99767.34;8375996;28;20068;-58
2023/12/10 09:08:14;;;;;;;23.90;3.50;;;;;;;13.67;71.16;99770.69;8371368;28;20029;-58
2023/12/10 09:12:15;;;;;;;23.25;4.85;;;;;;;13.54;70.95;99779.41;8374925;28;20039;-58
2023/12/10 09:16:18;;;;;;;29.27;5.32;;;;;;;13.64;71.26;99787.34;8375762;28;20095;-58
2023/12/10 09:20:18;;;;;;;20.52;4.25;;;;;;;13.55;71.31;99786.50;8370121;28;20079;-58
2023/12/10 09:24:19;;;;;;;27.60;4.45;;;;;;;13.57;71.32;99795.34;8373384;28;20312;-59
2023/12/10 09:28:19;;;;;;;30.27;4.03;;;;;;;14.42;70.35;99791.56;8375294;28;20032;-59
2023/12/10 09:32:23;;;;;;;20.80;2.63;;;;;;;14.61;68.40;99796.50;8374047;28;20070;-58
2023/12/10 09:36:23;;;;;;;23.40;3.93;;;;;;;15.40;66.86;99798.59;8362580;28;20033;-58
2023/12/10 09:40:24;;;;;;;30.88;4.43;;;;;;;16.08;65.01;99798.19;8361357;28;20040;-58
2023/12/10 09:44:24;;;;;;;31.52;4.28;;;;;;;16.26;63.72;99790.41;8368459;28;20695;-58
2023/12/10 09:48:25;;;;;;;25.80;3.30;;;;;;;15.91;63.08;99802.16;8369361;28;20033;-58
2023/12/10 09:52:25;;;;;;;24.48;3.03;;;;;;;14.95;66.40;99810.44;8395853;28;20494;-58
2023/12/10 09:56:26;;;;;;;18.55;2.70;;;;;;;15.99;63.27;99804.78;8364861;28;20061;-59
2023/12/10 10:00:26;;;;;;;29.08;3.45;;;;;;;16.87;62.08;99822.47;8361610;28;20064;-57
2023/12/10 10:04:27;;;;;;;19.65;3.17;;;;;;;16.84;61.59;99820.97;8363318;28;20042;-61
2023/12/10 10:08:28;;;;;;;23.67;2.72;;;;;;;15.56;64.11;99828.38;8368189;28;20028;-61
2023/12/10 10:12:30;;;;;;;21.02;3.85;;;;;;;14.52;67.16;99824.81;8364271;28;20047;-58
2023/12/10 10:16:31;;;;;;;24.33;3.53;;;;;;;14.18;69.83;99828.97;8357021;28;20037;-58
2023/12/10 10:20:31;;;;;;;15.02;3.47;;;;;;;14.10;71.40;99834.44;8357971;28;20041;-62
2023/12/10 10:24:35;;;;;;;23.98;4.20;;;;;;;14.06;71.14;99833.13;8356779;28;20565;-57
2023/12/10 10:28:36;;;;;;;22.65;3.47;;;;;;;14.09;71.83;99827.31;8354808;28;20569;-59
2023/12/10 10:32:39;;;;;;;26.23;4.28;;;;;;;14.28;72.25;99827.75;8359504;28;20041;-56
2023/12/10 10:36:40;;;;;;;22.90;3.00;;;;;;;14.07;72.33;99818.50;8357290;28;20041;-57
2023/12/10 10:40:40;;;;;;;25.50;3.20;;;;;;;13.96;73.14;99822.47;8356575;28;20051;-57
2023/12/10 10:44:41;;;;;;;23.38;3.58;;;;;;;13.96;73.93;99806.16;8341181;28;20036;-61
2023/12/10 10:48:43;;;;;;;28.20;4.45;;;;;;;14.12;73.14;99805.22;8350074;28;20052;-61
2023/12/10 10:52:45;;;;;;;31.92;4.05;;;;;;;14.71;71.09;99808.00;8353380;28;20091;-58
2023/12/10 10:56:46;;;;;;;17.52;2.60;;;;;;;14.95;69.52;99810.44;8355991;28;20086;-60
2023/12/10 11:00:46;;;;;;;26.95;3.28;;;;;;;14.94;68.60;99803.34;8354372;28;20048;-58
2023/12/10 11:04:48;;;;;;;32.35;4.55;;;;;;;15.38;67.92;99790.63;8356107;28;20431;-58
2023/12/10 11:09:04;;;;;;;22.65;3.65;;;;;;;15.05;68.22;99799.31;8355258;28;20438;-58
2023/12/10 11:13:04;;;;;;;16.65;2.67;;;;;;;14.86;69.23;99800.72;8351321;28;20419;-57
2023/12/10 11:17:09;;;;;;;18.88;3.40;;;;;;;15.95;67.24;99773.50;8355262;28;20047;-58
2023/12/10 11:21:10;;;;;;;19.77;2.72;;;;;;;16.25;64.74;99777.81;8368116;28;20710;-58
2023/12/10 11:25:12;;;;;;;25.42;3.17;;;;;;;15.32;66.70;99777.72;8359008;28;20504;-58
2023/12/10 11:29:13;;;;;;;22.25;3.47;;;;;;;14.89;67.58;99789.44;8365196;28;20446;-60
2023/12/10 11:33:14;;;;;;;20.15;3.30;;;;;;;14.75;68.84;99798.44;8361610;28;20093;-56
2023/12/10 11:37:15;;;;;;;27.88;3.67;;;;;;;14.89;69.19;99778.56;8354596;28;20056;-57
2023/12/10 11:41:16;;;;;;;19.67;3.83;;;;;;;15.14;68.93;99801.75;8359969;28;20551;-57
2023/12/10 11:45:17;;;;;;;25.50;4.13;;;;;;;15.28;69.11;99795.47;8363566;28;20071;-58
2023/12/10 11:49:17;;;;;;;22.55;4.38;;;;;;;15.65;67.77;99800.81;8360965;28;20040;-61
2023/12/10 11:53:18;;;;;;;22.67;3.03;;;;;;;15.42;69.36;99797.38;8377518;28;20044;-59
2023/12/10 11:57:18;;;;;;;23.30;3.20;;;;;;;15.01;71.18;99792.56;8365266;28;20139;-57
2023/12/10 12:01:19;;;;;;;29.38;3.55;;;;;;;14.65;72.47;99781.53;8367473;28;20040;-54
2023/12/10 12:05:20;;;;;;;28.23;4.35;;;;;;;14.44;73.27;99797.69;8363299;28;20438;-57
2023/12/10 12:09:20;;;;;;;26.75;3.60;;;;;;;14.43;73.01;99790.56;8363365;28;20124;-59
2023/12/10 12:13:21;;;;;;;26.90;4.53;;;;;;;14.37;73.50;99787.72;8353390;28;20075;-57
2023/12/10 12:17:22;;;;;;;33.38;4.82;;;;;;;14.30;73.81;99781.34;8350709;28;20132;-57
2023/12/10 12:21:22;;;;;;;32.95;4.50;;;;;;;14.28;73.32;99783.38;8360430;28;20041;-57
2023/12/10 12:25:23;;;;;;;32.20;4.05;;;;;;;14.21;73.77;99783.22;8364376;28;20045;-57
2023/12/10 12:29:24;;;;;;;37.35;4.35;;;;;;;14.17;74.19;99773.75;8369323;28;20043;-57
2023/12/10 12:33:24;;;;;;;29.98;4.25;;;;;;;14.10;74.45;99783.66;8366569;28;20075;-58
2023/12/10 12:37:24;;;;;;;33.85;4.25;;;;;;;14.09;75.13;99773.78;8368599;28;20055;-58
2023/12/10 12:41:25;;;;;;;24.55;3.85;;;;;;;14.13;73.90;99750.69;8365813;28;20040;-59
2023/12/10 12:45:26;;;;;;;37.72;4.43;;;;;;;14.11;74.44;99741.84;8364657;28;20043;-59
2023/12/10 12:49:26;;;;;;;23.75;3.78;;;;;;;14.13;75.09;99747.97;8367771;28;20040;-59
2023/12/10 12:53:27;;;;;;;28.80;4.13;;;;;;;14.19;74.33;99735.50;8381294;28;20541;-59
2023/12/10 12:57:27;;;;;;;30.88;3.67;;;;;;;14.22;73.30;99730.56;8369142;28;20044;-59
2023/12/10 13:01:27;;;;;;;23.95;3.45;;;;;;;14.30;73.30;99721.50;8354482;28;20045;-57
2023/12/10 13:05:28;;;;;;;24.98;3.13;;;;;;;14.24;73.32;99706.75;8369435;28;20412;-58
2023/12/10 13:09:29;;;;;;;26.92;3.92;;;;;;;14.26;73.49;99709.28;8355720;28;20057;-58
2023/12/10 13:13:29;;;;;;;20.73;3.72;;;;;;;14.15;74.39;99702.38;8353087;28;20044;-58
2023/12/10 13:17:30;;;;;;;25.60;3.40;;;;;;;14.12;74.18;99700.03;8356475;28;20058;-58
2023/12/10 13:21:31;;;;;;;26.13;3.22;;;;;;;14.13;73.52;99684.59;8353122;28;20033;-57
2023/12/10 13:25:31;;;;;;;28.60;4.57;;;;;;;14.05;74.37;99690.94;8352109;28;20045;-59
2023/12/10 13:29:32;;;;;;;27.77;3.42;;;;;;;14.03;74.81;99692.97;8354027;28;20075;-58
2023/12/10 13:33:33;;;;;;;27.60;4.13;;;;;;;13.94;75.20;99683.22;8354564;28;20403;-58
2023/12/10 13:37:33;;;;;;;19.73;3.28;;;;;;;13.95;75.60;99690.34;8354541;28;20543;-58
2023/12/10 13:41:34;;;;;;;26.67;3.80;;;;;;;14.02;74.91;99691.28;8352059;28;20474;-57
2023/12/10 13:45:35;;;;;;;21.63;3.13;;;;;;;14.10;73.79;99687.66;8349991;28;20079;-56
2023/12/10 13:49:36;;;;;;;25.88;3.78;;;;;;;14.15;73.23;99677.09;8350002;28;20033;-56
2023/12/10 13:53:36;;;;;;;25.33;3.58;;;;;;;14.18;73.05;99658.53;8350522;28;20095;-57
2023/12/10 13:57:37;;;;;;;20.52;3.35;;;;;;;14.19;73.52;99667.53;8352478;28;20073;-58
2023/12/10 14:01:37;;;;;;;19.55;2.88;;;;;;;14.13;74.41;99660.97;8352980;28;20178;-58
2023/12/10 14:05:38;;;;;;;21.42;3.20;;;;;;;14.10;74.35;99671.34;8354952;28;20052;-59
2023/12/10 14:09:38;;;;;;;22.38;2.83;;;;;;;13.98;75.62;99661.94;8353638;28;20252;-60
2023/12/10 14:13:39;;;;;;;26.48;3.22;;;;;;;13.90;75.76;99665.56;8349064;28;20045;-59
2023/12/10 14:17:39;;;;;;;19.98;3.22;;;;;;;13.79;76.54;99660.59;8350572;28;20033;-58
2023/12/10 14:21:40;;;;;;;23.27;2.92;;;;;;;13.76;76.56;99647.38;8346818;28;20530;-58
2023/12/10 14:25:40;;;;;;;22.50;3.28;;;;;;;13.73;76.23;99655.88;8353296;28;20067;-57
2023/12/10 14:29:41;;;;;;;15.23;2.40;;;;;;;13.75;75.79;99645.66;8351363;28;20044;-57
2023/12/10 14:33:41;;;;;;;15.93;1.92;;;;;;;13.79;74.67;99638.84;8354943;28;20033;-57
2023/12/10 14:37:42;;;;;;;10.07;1.50;;;;;;;13.85;74.16;99635.41;8353774;28;20539;-57
2023/12/10 14:41:42;;;;;;;14.95;1.85;;;;;;;13.87;74.10;99610.78;8350062;28;20515;-58
2023/12/10 14:45:43;;;;;;;18.00;2.50;;;;;;;13.89;74.06;99609.56;8349398;28;20260;-58
2023/12/10 14:49:43;;;;;;;13.60;2.60;;;;;;;13.69;74.94;99598.34;8349302;28;20045;-58
2023/12/10 14:53:44;;;;;;;16.17;2.03;;;;;;;13.51;76.32;99591.56;8348413;28;20065;-58
2023/12/10 14:57:44;;;;;;;15.25;2.63;;;;;;;13.49;75.69;99596.31;8352976;28;20041;-58
2023/12/10 15:01:45;;;;;;;14.70;2.20;;;;;;;13.46;74.91;99591.25;8352070;28;20087;-60
2023/12/10 15:05:48;;;;;;;10.68;2.15;;;;;;;13.53;74.90;99609.34;8352565;28;20426;-59
2023/12/10 15:09:49;;;;;;;16.67;2.17;;;;;;;13.36;75.67;99582.50;8350708;28;20502;-59
2023/12/10 15:13:49;;;;;;;20.10;2.83;;;;;;;13.38;75.57;99585.88;8351997;28;20494;-58
2023/12/10 15:17:52;;;;;;;14.00;2.30;;;;;;;13.29;76.61;99595.94;8350743;28;20044;-58
2023/12/10 15:21:53;;;;;;;13.82;1.85;;;;;;;13.20;77.18;99579.88;8352971;28;20041;-60
2023/12/10 15:25:53;;;;;;;20.27;4.05;;;;;;;13.15;78.14;99609.47;8351963;28;20103;-61
2023/12/10 15:29:55;;;;;;;16.40;2.30;;;;;;;13.03;78.13;99605.47;8352341;28;20048;-61
2023/12/10 15:33:55;;;;;;;16.73;2.28;;;;;;;13.06;77.35;99605.09;8351393;28;20531;-60
2023/12/10 15:37:56;;;;;;;15.52;2.40;;;;;;;13.05;76.85;99590.69;8351120;28;20402;-60
2023/12/10 15:41:56;;;;;;;22.27;2.67;;;;;;;13.12;75.98;99578.06;8346607;28;20578;-61
2023/12/10 15:45:57;;;;;;;15.20;1.90;;;;;;;13.11;76.13;99570.09;8347883;28;20053;-60
2023/12/10 15:49:57;;;;;;;20.25;2.80;;;;;;;13.12;76.25;99558.25;8351003;28;20517;-61
2023/12/10 15:53:58;;;;;;;16.45;2.55;;;;;;;13.20;75.00;99541.91;8353319;28;20025;-61
2023/12/10 15:57:59;;;;;;;16.88;2.30;;;;;;;13.33;73.68;99528.59;8357945;28;20395;-61
2023/12/10 16:01:59;;;;;;;16.35;2.28;;;;;;;13.39;72.86;99498.00;8357386;28;20065;-60
2023/12/10 16:06:00;;;;;;;9.77;2.08;;;;;;;13.55;72.19;99473.41;8356088;28;20040;-61
2023/12/10 16:10:00;;;;;;;16.52;2.38;;;;;;;13.41;72.45;99468.78;8356617;28;20040;-60
2023/12/10 16:14:04;;;;;;;12.23;1.50;;;;;;;13.35;72.78;99464.06;8354527;28;20070;-60
2023/12/10 16:18:04;;;;;;;23.47;3.20;;;;;;;13.52;71.19;99454.75;8335338;28;20546;-60
2023/12/10 16:22:05;;;;;;;16.17;2.63;;;;;;;13.53;70.75;99429.28;8336964;28;20041;-60
2023/12/10 16:26:05;;;;;;;10.20;2.05;;;;;;;13.55;70.48;99432.66;8340502;28;20037;-60
2023/12/10 16:30:06;;;;;;;17.02;1.92;;;;;;;13.46;70.48;99429.19;8336732;28;20391;-60
2023/12/10 16:34:09;;;;;;;13.80;2.70;;;;;;;13.56;69.86;99413.47;8332506;28;20570;-58
2023/12/10 16:38:10;;;;;;;14.77;2.20;;;;;;;13.47;70.30;99424.59;8333395;28;20064;-58
2023/12/10 16:42:10;;;;;;;15.02;2.85;;;;;;;13.33;71.50;99403.72;8353541;28;20041;-61
2023/12/10 16:46:11;;;;;;;14.77;2.10;;;;;;;13.30;71.27;99418.47;8352775;28;20055;-59
2023/12/10 16:50:13;;;;;;;14.65;1.80;;;;;;;13.23;72.26;99405.81;8347304;28;20155;-58
2023/12/10 16:54:13;;;;;;;18.77;2.28;;;;;;;13.31;71.40;99405.75;8346685;28;20041;-59
2023/12/10 16:58:14;;;;;;;14.60;2.55;;;;;;;13.26;71.86;99394.59;8341338;28;20045;-59
2023/12/10 17:02:14;;;;;;;14.90;2.40;;;;;;;13.21;72.28;99381.59;8354708;28;20036;-59
2023/12/10 17:06:15;;;;;;;20.77;2.72;;;;;;;13.25;72.53;99360.34;8352178;28;20471;-59
2023/12/10 17:10:15;;;;;;;16.42;2.05;;;;;;;13.29;72.90;99318.22;8349691;28;20069;-59
2023/12/10 17:14:16;;;;;;;21.90;2.65;;;;;;;13.17;75.71;99319.72;8353708;28;20124;-59
2023/12/10 17:18:17;;;;;;;15.45;2.03;;;;;;;12.86;79.66;99310.88;8354088;28;20045;-62
2023/12/10 17:22:18;;;;;;;15.60;2.28;;;;;;;12.68;80.89;99285.94;8350068;28;20038;-59
2023/12/10 17:26:19;;;;;;;18.17;2.15;;;;;;;12.57;82.63;99272.84;8355053;28;20049;-61
2023/12/10 17:30:19;;;;;;;19.55;3.13;;;;;;;12.59;82.41;99232.84;8352098;28;20037;-61
2023/12/10 17:34:20;;;;;;;24.92;3.25;;;;;;;12.58;82.64;99233.88;8352187;28;20348;-60
2023/12/10 17:38:21;;;;;;;14.88;2.30;;;;;;;12.72;81.35;99219.50;8351668;28;20037;-65
2023/12/10 17:42:22;;;;;;;12.70;1.67;;;;;;;12.78;80.42;99191.63;8342940;28;20128;-62
2023/12/10 17:46:22;;;;;;;17.15;2.10;;;;;;;12.82;81.04;99201.94;8318400;28;20112;-61
2023/12/10 17:50:22;;;;;;;13.10;2.17;;;;;;;12.55;84.02;99191.72;8322481;28;20037;-60
2023/12/10 17:54:23;;;;;;;14.43;2.67;;;;;;;12.52;83.97;99193.94;8345899;28;20040;-60
2023/12/10 17:58:23;;;;;;;14.75;2.13;;;;;;;12.37;86.00;99177.66;8352331;28;20040;-60
2023/12/10 18:02:24;;;;;;;14.88;1.80;;;;;;;12.25;87.23;99160.16;8346826;28;20053;-64
2023/12/10 18:06:24;;;;;;;13.48;2.63;;;;;;;12.12;89.26;99148.28;8352306;28;20499;-64
2023/12/10 18:10:25;;;;;;;8.18;1.52;;;;;;;12.04;90.65;99134.81;8346130;28;20560;-60
2023/12/10 18:14:25;;;;;;;14.52;2.60;;;;;;;12.08;91.08;99118.03;8348276;28;20036;-60
2023/12/10 18:18:28;;;;;;;10.63;1.88;;;;;;;12.11;90.70;99117.66;8350428;28;20071;-61
2023/12/10 18:22:28;;;;;;;9.63;1.60;;;;;;;12.12;91.53;99105.78;8343926;28;20582;-60
2023/12/10 18:26:30;;;;;;;17.10;2.08;;;;;;;12.20;91.59;99102.97;8348870;28;20055;-58
2023/12/10 18:30:31;;;;;;;6.65;1.70;;;;;;;12.23;90.94;99101.78;8352882;28;20083;-61
2023/12/10 18:34:31;;;;;;;7.45;1.00;;;;;;;12.37;90.32;99076.53;8357043;28;20045;-59
2023/12/10 18:38:32;;;;;;;5.40;0.65;;;;;;;12.40;90.11;99070.75;8354050;28;20037;-58